Terminal Aerodrome Forecast
Issued by NWS

Home | Current Version | Previous Version | Text Only | Print | Product List | Glossary On
Versions: 1 2 3 4 5 6 7 8 9 10 11 12 13 14 15 16 17 18
774
FTUS43 KEAX 301720
TAFSTJ
TAF
KSTJ 301720Z 3018/3118 01011KT P6SM VCSH OVC008
     FM302200 36011KT P6SM OVC008
     FM311500 01007KT P6SM BKN015=

USA.gov is the U.S. government's official web portal to all federal, state and local government web resources and services.